createdAt,value
2022-09-23T00:01:04.902Z,10.65
2022-09-23T00:03:32.907Z,10.65
2022-09-23T00:06:04.951Z,10.95
2022-09-23T00:08:31.527Z,10.30
2022-09-23T00:11:06.468Z,16.95
2022-09-23T00:13:34.108Z,14.00
2022-09-23T00:16:09.622Z,16.52
2022-09-23T00:18:36.359Z,10.52
2022-09-23T00:21:09.117Z,8.95
2022-09-23T00:23:35.767Z,12.05
2022-09-23T00:26:05.749Z,10.20
2022-09-23T00:28:33.354Z,11.23
2022-09-23T00:31:13.046Z,11.90
2022-09-23T00:33:40.640Z,13.77
2022-09-23T00:36:11.001Z,8.80
2022-09-23T00:38:38.505Z,11.35
2022-09-23T00:41:06.347Z,11.23
2022-09-23T00:43:55.087Z,9.23
2022-09-23T00:46:34.328Z,11.25
2022-09-23T00:49:13.667Z,12.32
2022-09-23T00:51:47.347Z,9.80
2022-09-23T00:54:14.425Z,10.30
2022-09-23T00:56:41.086Z,9.15
2022-09-23T00:59:10.333Z,12.73
2022-09-23T01:01:38.142Z,11.57
2022-09-23T01:04:06.682Z,10.82
2022-09-23T01:06:33.390Z,10.52
2022-09-23T01:08:59.957Z,15.38
2022-09-23T01:12:00.351Z,9.90
2022-09-23T01:15:08.699Z,12.40
2022-09-23T01:17:57.182Z,11.93
2022-09-23T01:20:44.724Z,12.85
2022-09-23T01:23:38.628Z,13.95
2022-09-23T01:27:03.024Z,9.20
2022-09-23T01:30:04.912Z,13.55
2022-09-23T01:32:53.188Z,8.18
2022-09-23T01:35:38.497Z,8.73
2022-09-23T01:38:24.829Z,11.60
2022-09-23T01:40:59.137Z,10.48
2022-09-23T01:43:37.256Z,10.88
2022-09-23T01:46:12.959Z,9.32
2022-09-23T01:48:58.522Z,10.73
2022-09-23T01:51:30.884Z,9.98
2022-09-23T01:54:11.990Z,10.15
2022-09-23T01:57:04.374Z,12.20
2022-09-23T01:59:38.270Z,14.00
2022-09-23T02:04:53.922Z,11.95
2022-09-23T02:07:27.148Z,10.25
2022-09-23T02:10:05.587Z,10.48
2022-09-23T02:12:35.678Z,12.90
2022-09-23T02:15:30.614Z,11.00
2022-09-23T02:18:17.819Z,10.70
2022-09-23T02:20:44.988Z,11.82
2022-09-23T02:23:27.419Z,11.07
2022-09-23T02:26:07.656Z,12.20
2022-09-23T02:28:41.097Z,9.73
2022-09-23T02:31:34.779Z,11.65
2022-09-23T02:34:26.071Z,11.13
2022-09-23T02:37:14.248Z,11.32
2022-09-23T02:40:23.441Z,12.50
2022-09-23T02:43:36.007Z,9.57
2022-09-23T02:46:04.413Z,10.18
2022-09-23T02:48:41.468Z,13.57
2022-09-23T02:51:10.027Z,11.57
2022-09-23T02:53:37.287Z,10.82
2022-09-23T02:56:23.101Z,12.65
2022-09-23T02:58:52.544Z,12.55
2022-09-23T03:01:37.261Z,11.80
2022-09-23T03:04:31.533Z,12.68
2022-09-23T03:07:13.322Z,13.80
2022-09-23T03:09:50.643Z,12.13
2022-09-23T03:12:32.864Z,13.82
2022-09-23T03:15:22.543Z,8.55
2022-09-23T03:17:58.081Z,12.35
2022-09-23T03:20:57.666Z,10.60
2022-09-23T03:23:35.575Z,11.60
2022-09-23T03:26:08.197Z,12.90
2022-09-23T03:28:42.690Z,13.20
2022-09-23T03:31:12.296Z,13.18
2022-09-23T03:33:43.347Z,10.68
2022-09-23T03:36:30.507Z,13.73
2022-09-23T03:39:06.817Z,14.52
2022-09-23T03:41:40.062Z,12.98
2022-09-23T03:44:08.868Z,13.25
2022-09-23T03:46:36.104Z,11.88
2022-09-23T03:49:16.032Z,11.55
2022-09-23T03:51:44.699Z,11.93
2022-09-23T03:54:11.692Z,12.18
2022-09-23T03:56:38.279Z,11.98
2022-09-23T03:59:04.978Z,10.23
2022-09-23T04:01:31.625Z,11.15
2022-09-23T04:03:58.194Z,14.88
2022-09-23T04:06:24.891Z,13.18
2022-09-23T04:08:51.542Z,11.68
2022-09-23T04:11:18.238Z,11.05
2022-09-23T04:13:44.905Z,10.88
2022-09-23T04:16:11.537Z,11.13
2022-09-23T04:18:38.146Z,12.05
2022-09-23T04:21:04.807Z,14.07
2022-09-23T04:23:31.520Z,10.73
2022-09-23T04:25:58.123Z,10.75
2022-09-23T04:28:24.754Z,10.38
2022-09-23T04:30:51.542Z,11.32
2022-09-23T04:33:18.257Z,9.73
2022-09-23T04:35:44.897Z,10.38
2022-09-23T04:38:12.716Z,9.75
2022-09-23T04:40:39.837Z,9.35
2022-09-23T04:43:09.478Z,11.40
2022-09-23T04:45:38.322Z,14.80
2022-09-23T04:48:04.963Z,10.35
2022-09-23T04:50:33.692Z,13.48
2022-09-23T04:53:00.672Z,15.05
2022-09-23T04:55:27.282Z,11.70
2022-09-23T04:57:53.987Z,10.70
2022-09-23T05:00:21.700Z,10.90
2022-09-23T05:02:49.729Z,9.88
2022-09-23T05:05:21.029Z,14.10
2022-09-23T05:07:48.420Z,14.32
2022-09-23T05:10:15.699Z,13.98
2022-09-23T05:12:42.468Z,14.27
2022-09-23T05:15:09.549Z,11.93
2022-09-23T05:17:37.211Z,15.73
2022-09-23T05:20:04.767Z,12.88
2022-09-23T05:22:31.721Z,12.85
2022-09-23T05:25:00.181Z,11.23
2022-09-23T05:27:26.898Z,13.60
2022-09-23T05:29:53.526Z,17.95
2022-09-23T05:32:20.784Z,15.73
2022-09-23T05:34:47.346Z,12.00
2022-09-23T05:37:13.919Z,10.25
2022-09-23T05:39:40.503Z,11.98
2022-09-23T05:42:07.204Z,10.23
2022-09-23T05:44:33.792Z,16.58
2022-09-23T05:47:00.488Z,15.50
2022-09-23T05:49:42.891Z,13.90
2022-09-23T05:52:13.703Z,12.02
2022-09-23T05:54:40.794Z,12.65
2022-09-23T05:57:07.783Z,12.20
2022-09-23T05:59:34.778Z,15.00
2022-09-23T06:02:01.900Z,11.80
2022-09-23T06:04:28.946Z,12.55
2022-09-23T06:07:01.445Z,13.85
2022-09-23T06:09:35.583Z,10.20
2022-09-23T06:12:03.695Z,12.07
2022-09-23T06:14:30.717Z,14.93
2022-09-23T06:16:57.742Z,10.70
2022-09-23T06:19:24.785Z,11.57
2022-09-23T06:21:51.793Z,9.70
2022-09-23T06:24:22.008Z,11.30
2022-09-23T06:26:50.873Z,8.27
2022-09-23T06:29:18.420Z,9.32
2022-09-23T06:31:45.697Z,8.68
2022-09-23T06:34:14.368Z,8.07
2022-09-23T06:36:45.083Z,7.43
2022-09-23T06:39:14.122Z,6.63
2022-09-23T06:41:41.227Z,7.55
2022-09-23T06:44:09.471Z,7.60
2022-09-23T06:46:36.933Z,7.07
2022-09-23T06:49:04.121Z,9.98
2022-09-23T06:51:31.184Z,4.93
2022-09-23T06:53:58.184Z,6.88
2022-09-23T06:56:25.182Z,6.25
2022-09-23T06:58:52.759Z,7.90
2022-09-23T07:01:20.089Z,8.50
2022-09-23T07:03:48.263Z,7.82
2022-09-23T07:06:15.580Z,7.25
2022-09-23T07:08:51.111Z,8.95
2022-09-23T07:11:22.313Z,7.80
2022-09-23T07:13:49.341Z,8.70
2022-09-23T07:16:16.451Z,6.22
2022-09-23T07:18:44.245Z,6.82
2022-09-23T07:21:14.985Z,9.27
2022-09-23T07:23:42.569Z,6.65
2022-09-23T07:26:09.650Z,7.45
2022-09-23T07:28:37.139Z,6.95
2022-09-23T07:31:09.429Z,7.22
2022-09-23T07:33:37.400Z,8.73
2022-09-23T07:36:08.840Z,7.68
2022-09-23T07:38:36.067Z,12.63
2022-09-23T07:41:04.015Z,7.70
2022-09-23T07:43:32.447Z,7.00
2022-09-23T07:46:04.321Z,8.48
2022-09-23T07:48:34.461Z,6.60
2022-09-23T07:51:06.304Z,9.18
2022-09-23T07:53:33.302Z,7.38
2022-09-23T07:56:00.385Z,5.57
2022-09-23T07:58:27.487Z,6.75
2022-09-23T08:00:54.552Z,5.28
2022-09-23T08:03:21.623Z,3.95
2022-09-23T08:05:48.701Z,5.85
2022-09-23T08:08:15.766Z,4.20
2022-09-23T08:10:42.836Z,6.50
2022-09-23T08:13:09.811Z,5.82
2022-09-23T08:15:36.846Z,5.28
2022-09-23T08:18:04.137Z,6.90
2022-09-23T08:20:47.781Z,6.80
2022-09-23T08:23:16.724Z,7.78
2022-09-23T08:25:47.174Z,3.67
2022-09-23T08:28:16.480Z,6.40
2022-09-23T08:30:44.539Z,5.68
2022-09-23T08:33:12.513Z,6.82
2022-09-23T08:35:39.786Z,4.50
2022-09-23T08:38:07.206Z,6.22
2022-09-23T08:40:38.296Z,5.32
2022-09-23T08:43:09.395Z,3.80
2022-09-23T08:45:41.027Z,3.80
2022-09-23T08:48:15.305Z,5.50
2022-09-23T08:50:47.977Z,3.53
2022-09-23T08:53:24.497Z,5.68
2022-09-23T08:55:52.451Z,4.95
2022-09-23T08:58:27.480Z,7.25
2022-09-23T09:01:12.958Z,7.03
2022-09-23T09:04:14.575Z,5.35
2022-09-23T09:06:53.197Z,5.07
2022-09-23T09:09:32.238Z,6.50
2022-09-23T09:12:13.254Z,5.95
2022-09-23T09:15:03.169Z,6.88
2022-09-23T09:17:38.203Z,4.65
2022-09-23T09:20:18.823Z,5.50
2022-09-23T09:22:59.788Z,5.18
2022-09-23T09:25:34.278Z,6.45
2022-09-23T09:28:01.838Z,7.65
2022-09-23T09:30:28.534Z,5.20
2022-09-23T09:32:59.147Z,3.38
2022-09-23T09:35:33.240Z,5.55
2022-09-23T09:38:01.756Z,7.95
2022-09-23T09:40:28.872Z,6.45
2022-09-23T09:42:55.509Z,4.55
2022-09-23T09:45:34.941Z,7.30
2022-09-23T09:48:34.263Z,6.00
2022-09-23T09:51:18.918Z,5.38
2022-09-23T09:53:45.899Z,5.00
2022-09-23T09:56:15.452Z,6.20
2022-09-23T09:58:43.850Z,8.93
2022-09-23T10:01:28.034Z,7.38
2022-09-23T10:06:32.378Z,9.45
2022-09-23T10:09:02.527Z,6.35
2022-09-23T10:11:30.280Z,7.45
2022-09-23T10:14:02.981Z,5.78
2022-09-23T10:16:34.421Z,4.97
2022-09-23T10:19:02.738Z,8.25
2022-09-23T10:21:37.920Z,7.78
2022-09-23T10:24:06.348Z,8.23
2022-09-23T10:26:41.540Z,8.57
2022-09-23T10:29:23.317Z,6.13
2022-09-23T10:31:53.674Z,5.72
2022-09-23T10:34:30.235Z,5.50
2022-09-23T10:37:05.280Z,5.03
2022-09-23T10:39:51.114Z,7.70
2022-09-23T10:42:51.621Z,4.90
2022-09-23T10:45:46.160Z,4.38
2022-09-23T10:50:49.104Z,5.57
2022-09-23T10:53:25.943Z,7.47
2022-09-23T10:55:52.950Z,5.45
2022-09-23T10:58:44.556Z,7.35
2022-09-23T11:01:30.889Z,3.60
2022-09-23T11:04:18.709Z,6.07
2022-09-23T11:06:45.731Z,7.65
2022-09-23T11:09:21.627Z,7.53
2022-09-23T11:11:56.622Z,6.85
2022-09-23T11:14:26.695Z,4.32
2022-09-23T11:17:09.850Z,3.92
2022-09-23T11:19:36.841Z,5.70
2022-09-23T11:22:15.723Z,3.65
2022-09-23T11:25:01.130Z,3.50
2022-09-23T11:27:35.913Z,4.70
2022-09-23T11:30:13.013Z,6.72
2022-09-23T11:32:52.240Z,4.15
2022-09-23T11:35:23.120Z,6.32
2022-09-23T11:37:52.870Z,5.90
2022-09-23T11:40:22.311Z,7.60
2022-09-23T11:43:00.636Z,3.60
2022-09-23T11:45:31.339Z,5.15
2022-09-23T11:48:01.210Z,8.38
2022-09-23T11:50:37.579Z,6.70
2022-09-23T11:53:23.222Z,5.85
2022-09-23T11:55:58.348Z,4.22
2022-09-23T11:58:50.423Z,6.82
2022-09-23T12:01:35.607Z,4.80
2022-09-23T12:04:18.707Z,6.13
2022-09-23T12:06:48.877Z,5.40
2022-09-23T12:09:41.112Z,6.47
2022-09-23T12:12:26.310Z,6.80
2022-09-23T12:15:07.033Z,8.05
2022-09-23T12:17:34.091Z,3.58
2022-09-23T12:20:04.465Z,13.10
2022-09-23T12:22:52.636Z,5.13
2022-09-23T12:25:45.887Z,10.32
2022-09-23T12:28:15.899Z,5.45
2022-09-23T12:30:43.738Z,7.53
2022-09-23T12:33:17.537Z,7.75
2022-09-23T12:35:46.717Z,7.35
2022-09-23T12:38:31.892Z,7.45
2022-09-23T12:40:59.886Z,6.10
2022-09-23T12:43:30.003Z,7.28
2022-09-23T12:46:16.584Z,6.35
2022-09-23T12:48:44.898Z,5.35
2022-09-23T12:51:16.847Z,5.30
2022-09-23T12:53:50.716Z,8.63
2022-09-23T12:58:45.149Z,6.63
2022-09-23T13:01:15.375Z,6.90
2022-09-23T13:04:04.734Z,6.78
2022-09-23T13:06:39.978Z,6.93
2022-09-23T13:09:19.714Z,5.57
2022-09-23T13:11:48.056Z,7.95
2022-09-23T13:14:26.617Z,9.77
2022-09-23T13:16:58.227Z,6.15
2022-09-23T13:19:28.394Z,7.95
2022-09-23T13:21:55.447Z,6.10
2022-09-23T13:24:28.223Z,5.55
2022-09-23T13:27:14.176Z,7.15
2022-09-23T13:29:52.629Z,7.18
2022-09-23T13:32:20.846Z,7.38
2022-09-23T13:34:55.887Z,7.60
2022-09-23T13:37:24.662Z,5.93
2022-09-23T13:39:52.022Z,5.22
2022-09-23T13:42:27.093Z,8.30
2022-09-23T13:44:57.390Z,6.88
2022-09-23T13:47:28.905Z,6.05
2022-09-23T13:49:56.343Z,5.18
2022-09-23T13:52:31.761Z,6.55
2022-09-23T13:54:58.851Z,7.13
2022-09-23T13:57:27.397Z,8.23
2022-09-23T13:59:54.490Z,5.53
2022-09-23T14:02:25.559Z,7.28
2022-09-23T14:04:52.791Z,10.25
2022-09-23T14:07:20.215Z,7.72
2022-09-23T14:09:48.873Z,7.00
2022-09-23T14:12:21.884Z,6.05
2022-09-23T14:14:49.732Z,7.20
2022-09-23T14:17:18.647Z,8.25
2022-09-23T14:19:46.081Z,8.50
2022-09-23T14:22:28.595Z,5.70
2022-09-23T14:24:57.211Z,6.18
2022-09-23T14:27:31.714Z,6.38
2022-09-23T14:30:00.033Z,7.72
2022-09-23T14:32:28.918Z,7.60
2022-09-23T14:35:04.589Z,5.35
2022-09-23T14:37:55.594Z,6.13
2022-09-23T14:40:26.912Z,6.70
2022-09-23T14:43:08.537Z,8.52
2022-09-23T14:45:39.981Z,5.88
2022-09-23T14:48:29.904Z,6.15
2022-09-23T14:51:02.068Z,5.43
2022-09-23T14:53:48.649Z,5.63
2022-09-23T14:56:16.846Z,5.65
2022-09-23T14:58:51.989Z,6.35
2022-09-23T15:01:39.933Z,6.65
2022-09-23T15:04:13.289Z,5.50
2022-09-23T15:06:51.015Z,6.35
2022-09-23T15:09:32.396Z,5.38
2022-09-23T15:12:21.122Z,6.55
2022-09-23T15:14:56.558Z,3.90
2022-09-23T15:17:23.138Z,6.50
2022-09-23T15:19:59.939Z,6.70
2022-09-23T15:22:26.861Z,5.72
2022-09-23T15:24:55.715Z,5.95
2022-09-23T15:27:27.856Z,7.43
2022-09-23T15:29:56.483Z,5.20
2022-09-23T15:32:23.050Z,10.32
2022-09-23T15:34:50.591Z,5.63
2022-09-23T15:37:17.708Z,5.28
2022-09-23T15:39:44.526Z,7.22
2022-09-23T15:42:11.728Z,7.43
2022-09-23T15:44:38.371Z,4.13
2022-09-23T15:47:05.332Z,6.80
2022-09-23T15:49:36.321Z,6.68
2022-09-23T15:52:04.741Z,8.98
2022-09-23T15:54:34.761Z,9.50
2022-09-23T15:57:02.027Z,4.55
2022-09-23T15:59:30.953Z,4.82
2022-09-23T16:02:01.355Z,6.75
2022-09-23T16:04:28.181Z,6.40
2022-09-23T16:06:54.753Z,5.35
2022-09-23T16:09:21.328Z,7.40
2022-09-23T16:11:49.211Z,9.35
2022-09-23T16:14:17.646Z,9.10
2022-09-23T16:16:47.636Z,5.65
2022-09-23T16:19:15.617Z,5.50
2022-09-23T16:21:43.087Z,5.78
2022-09-23T16:24:18.256Z,5.13
2022-09-23T16:26:46.716Z,5.10
2022-09-23T16:29:13.579Z,13.77
2022-09-23T16:31:40.344Z,8.55
2022-09-23T16:34:07.483Z,7.32
2022-09-23T16:36:42.920Z,11.65
2022-09-23T16:39:12.529Z,10.93
2022-09-23T16:41:42.731Z,8.43
2022-09-23T16:44:10.566Z,8.18
2022-09-23T16:46:37.242Z,10.45
2022-09-23T16:49:04.491Z,14.73
2022-09-23T16:51:37.943Z,15.23
2022-09-23T16:54:10.808Z,6.38
2022-09-23T16:56:43.864Z,13.95
2022-09-23T16:59:14.583Z,6.90
2022-09-23T17:01:59.850Z,11.48
2022-09-23T17:04:27.624Z,8.75
2022-09-23T17:06:55.909Z,8.63
2022-09-23T17:09:25.738Z,7.78
2022-09-23T17:11:58.695Z,7.22
2022-09-23T17:14:25.359Z,9.23
2022-09-23T17:16:51.932Z,8.93
2022-09-23T17:19:18.617Z,7.82
2022-09-23T17:21:45.179Z,7.70
2022-09-23T17:24:11.777Z,11.88
2022-09-23T17:26:38.383Z,11.95
2022-09-23T17:29:05.533Z,10.63
2022-09-23T17:31:32.405Z,10.52
2022-09-23T17:33:59.141Z,7.70
2022-09-23T17:36:27.325Z,10.40
2022-09-23T17:38:54.106Z,9.35
2022-09-23T17:41:21.056Z,22.38
2022-09-23T17:43:48.270Z,22.15
2022-09-23T17:46:18.688Z,23.67
2022-09-23T17:48:45.576Z,17.52
2022-09-23T17:51:14.899Z,11.52
2022-09-23T17:53:44.963Z,20.02
2022-09-23T17:56:15.345Z,13.05
2022-09-23T17:58:42.912Z,19.77
2022-09-23T18:01:12.200Z,17.67
2022-09-23T18:03:39.480Z,15.52
2022-09-23T18:06:10.302Z,13.27
2022-09-23T18:08:37.279Z,14.40
2022-09-23T18:11:17.926Z,10.85
2022-09-23T18:13:52.957Z,8.27
2022-09-23T18:16:21.311Z,10.27
2022-09-23T18:18:52.857Z,12.55
2022-09-23T18:21:20.591Z,10.40
2022-09-23T18:23:47.935Z,10.90
2022-09-23T18:26:22.529Z,10.70
2022-09-23T18:28:49.903Z,14.85
2022-09-23T18:31:16.624Z,10.15
2022-09-23T18:33:43.294Z,11.95
2022-09-23T18:36:10.336Z,11.43
2022-09-23T18:38:37.091Z,10.77
2022-09-23T18:41:03.817Z,13.60
2022-09-23T18:43:37.412Z,11.60
2022-09-23T18:46:10.639Z,12.23
2022-09-23T18:48:55.924Z,11.23
2022-09-23T18:51:25.574Z,8.43
2022-09-23T18:53:57.448Z,16.08
2022-09-23T18:56:41.940Z,11.57
2022-09-23T18:59:13.939Z,13.45
2022-09-23T19:01:40.956Z,12.60
2022-09-23T19:04:08.242Z,14.45
2022-09-23T19:06:35.433Z,11.23
2022-09-23T19:09:02.272Z,11.45
2022-09-23T19:11:28.935Z,15.25
2022-09-23T19:13:57.905Z,12.50
2022-09-23T19:16:25.776Z,10.23
2022-09-23T19:18:53.159Z,13.63
2022-09-23T19:21:21.938Z,12.30
2022-09-23T19:23:50.705Z,12.40
2022-09-23T19:26:20.471Z,14.18
2022-09-23T19:28:51.970Z,12.52
2022-09-23T19:31:27.169Z,11.00
2022-09-23T19:34:02.739Z,11.85
2022-09-23T19:36:32.436Z,12.32
2022-09-23T19:39:03.152Z,13.27
2022-09-23T19:41:35.221Z,14.13
2022-09-23T19:44:03.116Z,11.48
2022-09-23T19:46:32.258Z,10.30
2022-09-23T19:49:00.148Z,11.15
2022-09-23T19:51:27.484Z,12.95
2022-09-23T19:53:54.130Z,12.02
2022-09-23T19:56:20.830Z,12.18
2022-09-23T19:58:51.376Z,17.10
2022-09-23T20:01:18.926Z,13.32
2022-09-23T20:03:46.860Z,14.57
2022-09-23T20:06:14.340Z,15.70
2022-09-23T20:08:41.529Z,16.08
2022-09-23T20:11:13.639Z,12.35
2022-09-23T20:13:42.476Z,14.52
2022-09-23T20:16:11.140Z,15.35
2022-09-23T20:18:42.259Z,15.95
2022-09-23T20:21:11.851Z,14.48
2022-09-23T20:23:38.573Z,14.57
2022-09-23T20:26:25.030Z,16.15
2022-09-23T20:28:52.034Z,14.55
2022-09-23T20:31:22.921Z,12.38
2022-09-23T20:33:56.115Z,12.93
2022-09-23T20:36:22.661Z,12.47
2022-09-23T20:38:53.442Z,15.15
2022-09-23T20:41:20.338Z,15.05
2022-09-23T20:43:48.124Z,13.73
2022-09-23T20:46:17.556Z,13.48
2022-09-23T20:48:46.403Z,12.55
2022-09-23T20:51:12.967Z,16.23
2022-09-23T20:53:39.517Z,16.23
2022-09-23T20:56:06.560Z,14.45
2022-09-23T20:58:37.155Z,16.55
2022-09-23T21:01:11.678Z,16.08
2022-09-23T21:03:44.541Z,19.70
2022-09-23T21:06:13.849Z,20.92
2022-09-23T21:08:41.279Z,17.40
2022-09-23T21:11:11.584Z,17.92
2022-09-23T21:13:38.830Z,18.45
2022-09-23T21:16:08.145Z,16.02
2022-09-23T21:18:35.217Z,16.13
2022-09-23T21:21:02.040Z,18.52
2022-09-23T21:23:31.174Z,16.15
2022-09-23T21:26:09.018Z,17.33
2022-09-23T21:28:42.096Z,13.55
2022-09-23T21:31:14.875Z,15.60
2022-09-23T21:33:41.545Z,15.80
2022-09-23T21:36:09.290Z,16.23
2022-09-23T21:38:37.140Z,16.95
2022-09-23T21:41:09.901Z,14.23
2022-09-23T21:43:38.514Z,14.07
2022-09-23T21:46:07.697Z,13.85
2022-09-23T21:48:36.245Z,12.13
2022-09-23T21:51:05.445Z,15.13
2022-09-23T21:53:34.794Z,13.50
2022-09-23T21:56:09.796Z,17.92
2022-09-23T21:58:38.221Z,16.00
2022-09-23T22:01:16.181Z,16.05
2022-09-23T22:03:44.058Z,14.02
2022-09-23T22:06:13.613Z,17.38
2022-09-23T22:08:42.762Z,14.88
2022-09-23T22:11:32.377Z,15.88
2022-09-23T22:14:00.787Z,17.77
2022-09-23T22:16:29.083Z,13.90
2022-09-23T22:18:58.248Z,12.95
2022-09-23T22:21:26.676Z,14.15
2022-09-23T22:23:58.911Z,15.02
2022-09-23T22:26:25.571Z,16.48
2022-09-23T22:29:10.723Z,16.85
2022-09-23T22:31:55.981Z,14.82
2022-09-23T22:34:48.453Z,14.27
2022-09-23T22:37:25.571Z,15.02
2022-09-23T22:39:52.312Z,13.35
2022-09-23T22:42:21.888Z,14.65
2022-09-23T22:44:49.224Z,12.05
2022-09-23T22:47:17.909Z,13.13
2022-09-23T22:49:45.448Z,13.88
2022-09-23T22:52:12.421Z,15.05
2022-09-23T22:54:39.038Z,13.20
2022-09-23T22:57:07.575Z,16.67
2022-09-23T22:59:34.791Z,14.43
2022-09-23T23:02:06.661Z,13.07
2022-09-23T23:04:33.752Z,14.25
2022-09-23T23:07:00.321Z,12.95
2022-09-23T23:09:26.911Z,11.18
2022-09-23T23:11:53.625Z,13.00
2022-09-23T23:14:20.439Z,14.10
2022-09-23T23:16:47.317Z,13.07
2022-09-23T23:19:16.731Z,15.10
2022-09-23T23:21:44.754Z,15.98
2022-09-23T23:24:17.089Z,12.15
2022-09-23T23:26:43.911Z,11.35
2022-09-23T23:29:12.813Z,10.77
2022-09-23T23:31:39.830Z,13.68
2022-09-23T23:34:10.433Z,12.75
2022-09-23T23:36:37.348Z,13.15
2022-09-23T23:39:04.380Z,13.95
2022-09-23T23:41:31.544Z,13.45
2022-09-23T23:44:00.047Z,11.63
2022-09-23T23:46:28.706Z,12.23
2022-09-23T23:48:56.767Z,15.13
2022-09-23T23:51:26.350Z,12.57
2022-09-23T23:53:54.453Z,13.98
2022-09-23T23:56:23.850Z,13.32
2022-09-23T23:59:03.002Z,11.45
